Terminal Aerodrome Forecast
Issued by NWS Bismarck, ND

Current Version | Previous Version | Text Only | Print | Product List | Glossary On
Versions: 1 2 3 4 5 6 7 8 9 10 11 12 13 14 15 16 17 18 19
000
FTUS43 KBIS 280525
TAFBIS
TAF
KBIS 280525Z 2806/2906 24015G25KT P6SM VCSH OVC050
     FM281100 27017G28KT P6SM SCT035 BKN050
     FM281700 26030G45KT P6SM SCT050
     FM290200 28020KT P6SM BKN060=

USA.gov is the U.S. government's official web portal to all federal, state and local government web resources and services.